Hauptseite
METAR-TAF:

METAR-TAF

Flughäfen :

Hagåtña, Guam, Vereinigte Staaten

Flughafen Antonio B. Won Pat

Breite: 13-29N, Länge: 144-48E, Höhe: 91 m

Beobachtung

Neuester Wetterbericht von vor 23 Minuten, um 11:54 UTC
Wind 5 kt aus Ost/Südost
Temperatur 27°C
Luftfeuchtigkeit 89%
Luftdruck 1014 hPa
Sichtweite: 16.1 km
Aufgelockert bewölkt in der Höhe von 5500 ft

METAR: PGUM 281154Z 12005KT 10SM SCT055 27/25 A2995 RMK AO2 SLP135 70028 T02720250 10283 20272 51017 $

Zeit: 22:17 (12:17 UTC)

Prognose

Neuester Wetterbericht von vor 57 Minuten, um 11:20 UTC
Gültige Prognose vom 28 um 12 UTC bis 29 um 18 UTC
Wind 7 kt aus Ost/Südost
Sichtweite: 10 km
Aufgelockert bewölkt in der Höhe von 2000 ft
Schauer in der Nähe

TAF: PGUM 281120Z 2812/2918 12007KT P6SM VCSH SCT020

Wetterbeobachtungen und Prognosen von mehr als 4000 Flughäfen (METAR und TAF Bericht).

Die verfügbaren Stationen werden durch gelbe und rote Markierungen auf der Karte dargestellt.

Führen Sie die Maus auf sie, um den Namen der Station zu sehen.

Darauf klicken, um die Beobachtung von Wetterbeobachtungen und Prognosen zu sehen.

Um die Karte zu ändern : klicken Sie auf den grünen Tasten mit einem schwarzen Kreuz Zum Vergrößern, auf den grünen Button mit einem Gedankenstrich zu verkleinern, oder auf die grünen Pfeile für benachbarte Karten.


METAR-TAF: